sensor_id;sensor_type;location;lat;lon;timestamp;P1;durP1;ratioP1;P2;durP2;ratioP2
70667;SDS011;58242;51.250;-1.118;2022-11-03T00:01:38;5.63;;;2.20;;
70667;SDS011;58242;51.250;-1.118;2022-11-03T00:04:06;5.13;;;2.20;;
70667;SDS011;58242;51.250;-1.118;2022-11-03T00:06:33;3.40;;;1.77;;
70667;SDS011;58242;51.250;-1.118;2022-11-03T00:08:59;7.80;;;2.80;;
70667;SDS011;58242;51.250;-1.118;2022-11-03T00:11:26;4.65;;;2.58;;
70667;SDS011;58242;51.250;-1.118;2022-11-03T00:13:51;4.50;;;2.45;;
70667;SDS011;58242;51.250;-1.118;2022-11-03T00:16:17;6.70;;;2.65;;
70667;SDS011;58242;51.250;-1.118;2022-11-03T00:18:42;5.60;;;2.90;;
70667;SDS011;58242;51.250;-1.118;2022-11-03T00:21:09;8.10;;;2.58;;
70667;SDS011;58242;51.250;-1.118;2022-11-03T00:23:37;5.20;;;1.83;;
70667;SDS011;58242;51.250;-1.118;2022-11-03T00:26:13;3.55;;;1.70;;
70667;SDS011;58242;51.250;-1.118;2022-11-03T00:28:53;5.85;;;2.58;;
70667;SDS011;58242;51.250;-1.118;2022-11-03T00:31:24;9.65;;;3.33;;
70667;SDS011;58242;51.250;-1.118;2022-11-03T00:33:57;10.18;;;2.75;;
70667;SDS011;58242;51.250;-1.118;2022-11-03T00:36:27;9.07;;;2.35;;
70667;SDS011;58242;51.250;-1.118;2022-11-03T00:38:54;2.53;;;2.10;;
70667;SDS011;58242;51.250;-1.118;2022-11-03T00:41:21;6.25;;;2.08;;
70667;SDS011;58242;51.250;-1.118;2022-11-03T00:43:47;4.43;;;2.30;;
70667;SDS011;58242;51.250;-1.118;2022-11-03T00:46:13;6.30;;;2.50;;
70667;SDS011;58242;51.250;-1.118;2022-11-03T00:48:39;9.68;;;2.63;;
70667;SDS011;58242;51.250;-1.118;2022-11-03T00:53:39;2.78;;;1.98;;
70667;SDS011;58242;51.250;-1.118;2022-11-03T00:56:09;5.88;;;2.05;;
70667;SDS011;58242;51.250;-1.118;2022-11-03T00:58:36;3.47;;;2.17;;
70667;SDS011;58242;51.250;-1.118;2022-11-03T01:01:03;2.65;;;1.60;;
70667;SDS011;58242;51.250;-1.118;2022-11-03T01:03:35;4.35;;;1.60;;
70667;SDS011;58242;51.250;-1.118;2022-11-03T01:06:04;2.22;;;1.75;;
70667;SDS011;58242;51.250;-1.118;2022-11-03T01:08:49;8.00;;;2.05;;
70667;SDS011;58242;51.250;-1.118;2022-11-03T01:11:16;1.80;;;1.70;;
70667;SDS011;58242;51.250;-1.118;2022-11-03T01:14:01;3.75;;;2.63;;
70667;SDS011;58242;51.250;-1.118;2022-11-03T01:16:28;2.08;;;1.75;;
70667;SDS011;58242;51.250;-1.118;2022-11-03T01:18:54;3.78;;;2.03;;
70667;SDS011;58242;51.250;-1.118;2022-11-03T01:21:19;2.92;;;1.70;;
70667;SDS011;58242;51.250;-1.118;2022-11-03T01:23:45;2.72;;;1.65;;
70667;SDS011;58242;51.250;-1.118;2022-11-03T01:26:12;2.17;;;1.83;;
70667;SDS011;58242;51.250;-1.118;2022-11-03T01:28:39;3.03;;;1.85;;
70667;SDS011;58242;51.250;-1.118;2022-11-03T01:33:38;3.97;;;1.85;;
70667;SDS011;58242;51.250;-1.118;2022-11-03T01:36:04;2.10;;;1.50;;
70667;SDS011;58242;51.250;-1.118;2022-11-03T01:38:30;1.35;;;1.30;;
70667;SDS011;58242;51.250;-1.118;2022-11-03T01:40:57;1.20;;;1.20;;
70667;SDS011;58242;51.250;-1.118;2022-11-03T01:43:23;2.70;;;1.60;;
70667;SDS011;58242;51.250;-1.118;2022-11-03T01:45:50;1.10;;;1.10;;
70667;SDS011;58242;51.250;-1.118;2022-11-03T01:48:20;2.92;;;1.60;;
70667;SDS011;58242;51.250;-1.118;2022-11-03T01:50:47;1.50;;;1.48;;
70667;SDS011;58242;51.250;-1.118;2022-11-03T01:53:12;1.58;;;1.48;;
70667;SDS011;58242;51.250;-1.118;2022-11-03T01:55:40;2.10;;;1.30;;
70667;SDS011;58242;51.250;-1.118;2022-11-03T01:58:10;1.50;;;1.40;;
70667;SDS011;58242;51.250;-1.118;2022-11-03T02:00:40;1.10;;;1.10;;
70667;SDS011;58242;51.250;-1.118;2022-11-03T02:03:07;3.83;;;1.40;;
70667;SDS011;58242;51.250;-1.118;2022-11-03T02:05:33;1.40;;;1.30;;
70667;SDS011;58242;51.250;-1.118;2022-11-03T02:08:19;1.30;;;1.30;;
70667;SDS011;58242;51.250;-1.118;2022-11-03T02:10:51;1.58;;;1.48;;
70667;SDS011;58242;51.250;-1.118;2022-11-03T02:13:24;1.67;;;1.50;;
70667;SDS011;58242;51.250;-1.118;2022-11-03T02:15:55;1.45;;;1.35;;
70667;SDS011;58242;51.250;-1.118;2022-11-03T02:18:26;1.48;;;1.38;;
70667;SDS011;58242;51.250;-1.118;2022-11-03T02:21:01;1.20;;;1.10;;
70667;SDS011;58242;51.250;-1.118;2022-11-03T02:23:52;1.63;;;1.52;;
70667;SDS011;58242;51.250;-1.118;2022-11-03T02:26:34;2.88;;;1.33;;
70667;SDS011;58242;51.250;-1.118;2022-11-03T02:29:00;1.30;;;1.20;;
70667;SDS011;58242;51.250;-1.118;2022-11-03T02:31:28;0.95;;;0.95;;
70667;SDS011;58242;51.250;-1.118;2022-11-03T02:36:50;0.98;;;0.98;;
70667;SDS011;58242;51.250;-1.118;2022-11-03T02:39:24;1.05;;;1.00;;
70667;SDS011;58242;51.250;-1.118;2022-11-03T02:41:56;2.38;;;1.10;;
70667;SDS011;58242;51.250;-1.118;2022-11-03T02:44:23;2.13;;;1.00;;
70667;SDS011;58242;51.250;-1.118;2022-11-03T02:46:52;1.38;;;1.27;;
70667;SDS011;58242;51.250;-1.118;2022-11-03T02:49:21;1.02;;;1.02;;
70667;SDS011;58242;51.250;-1.118;2022-11-03T02:51:46;2.40;;;1.20;;
70667;SDS011;58242;51.250;-1.118;2022-11-03T02:54:19;1.17;;;1.05;;
70667;SDS011;58242;51.250;-1.118;2022-11-03T02:57:00;1.33;;;1.10;;
70667;SDS011;58242;51.250;-1.118;2022-11-03T02:59:32;2.55;;;1.50;;
70667;SDS011;58242;51.250;-1.118;2022-11-03T03:02:05;3.53;;;1.48;;
70667;SDS011;58242;51.250;-1.118;2022-11-03T03:04:41;1.00;;;1.00;;
70667;SDS011;58242;51.250;-1.118;2022-11-03T03:07:11;1.38;;;1.02;;
70667;SDS011;58242;51.250;-1.118;2022-11-03T03:09:48;1.05;;;1.00;;
70667;SDS011;58242;51.250;-1.118;2022-11-03T03:12:20;1.05;;;1.05;;
70667;SDS011;58242;51.250;-1.118;2022-11-03T03:14:47;1.40;;;1.20;;
70667;SDS011;58242;51.250;-1.118;2022-11-03T03:17:22;2.17;;;1.30;;
70667;SDS011;58242;51.250;-1.118;2022-11-03T03:22:31;1.00;;;0.90;;
70667;SDS011;58242;51.250;-1.118;2022-11-03T03:27:57;0.90;;;0.90;;
70667;SDS011;58242;51.250;-1.118;2022-11-03T03:30:26;2.17;;;1.00;;
70667;SDS011;58242;51.250;-1.118;2022-11-03T03:32:54;1.20;;;1.00;;
70667;SDS011;58242;51.250;-1.118;2022-11-03T03:35:22;3.67;;;1.90;;
70667;SDS011;58242;51.250;-1.118;2022-11-03T03:37:50;3.58;;;1.60;;
70667;SDS011;58242;51.250;-1.118;2022-11-03T03:40:21;1.30;;;1.15;;
70667;SDS011;58242;51.250;-1.118;2022-11-03T03:42:51;2.35;;;1.25;;
70667;SDS011;58242;51.250;-1.118;2022-11-03T03:45:17;1.20;;;1.10;;
70667;SDS011;58242;51.250;-1.118;2022-11-03T03:47:44;0.98;;;0.98;;
70667;SDS011;58242;51.250;-1.118;2022-11-03T03:50:10;1.02;;;1.02;;
70667;SDS011;58242;51.250;-1.118;2022-11-03T03:52:36;2.05;;;1.10;;
70667;SDS011;58242;51.250;-1.118;2022-11-03T03:55:02;1.00;;;1.00;;
70667;SDS011;58242;51.250;-1.118;2022-11-03T03:57:29;1.35;;;1.30;;
70667;SDS011;58242;51.250;-1.118;2022-11-03T03:59:55;1.10;;;1.10;;
70667;SDS011;58242;51.250;-1.118;2022-11-03T04:02:21;1.33;;;1.10;;
70667;SDS011;58242;51.250;-1.118;2022-11-03T04:04:46;1.08;;;1.08;;
70667;SDS011;58242;51.250;-1.118;2022-11-03T04:07:11;1.00;;;1.00;;
70667;SDS011;58242;51.250;-1.118;2022-11-03T04:09:55;1.40;;;0.90;;
70667;SDS011;58242;51.250;-1.118;2022-11-03T04:12:21;0.90;;;0.90;;
70667;SDS011;58242;51.250;-1.118;2022-11-03T04:15:05;1.25;;;1.10;;
70667;SDS011;58242;51.250;-1.118;2022-11-03T04:17:49;0.88;;;0.88;;
70667;SDS011;58242;51.250;-1.118;2022-11-03T04:20:33;1.33;;;1.13;;
70667;SDS011;58242;51.250;-1.118;2022-11-03T04:23:17;1.00;;;1.00;;
70667;SDS011;58242;51.250;-1.118;2022-11-03T04:25:46;0.90;;;0.90;;
70667;SDS011;58242;51.250;-1.118;2022-11-03T04:28:14;1.85;;;1.02;;
70667;SDS011;58242;51.250;-1.118;2022-11-03T04:30:39;1.52;;;1.10;;
70667;SDS011;58242;51.250;-1.118;2022-11-03T04:33:12;1.00;;;1.00;;
70667;SDS011;58242;51.250;-1.118;2022-11-03T04:35:40;0.95;;;0.95;;
70667;SDS011;58242;51.250;-1.118;2022-11-03T04:38:19;1.10;;;1.10;;
70667;SDS011;58242;51.250;-1.118;2022-11-03T04:40:48;2.42;;;1.20;;
70667;SDS011;58242;51.250;-1.118;2022-11-03T04:43:18;0.95;;;0.95;;
70667;SDS011;58242;51.250;-1.118;2022-11-03T04:45:45;0.98;;;0.88;;
70667;SDS011;58242;51.250;-1.118;2022-11-03T04:48:13;1.73;;;1.40;;
70667;SDS011;58242;51.250;-1.118;2022-11-03T04:50:40;1.33;;;1.23;;
70667;SDS011;58242;51.250;-1.118;2022-11-03T04:53:13;1.48;;;1.38;;
70667;SDS011;58242;51.250;-1.118;2022-11-03T04:55:41;4.15;;;1.30;;
70667;SDS011;58242;51.250;-1.118;2022-11-03T04:58:27;1.33;;;1.20;;
70667;SDS011;58242;51.250;-1.118;2022-11-03T05:00:56;3.70;;;1.83;;
70667;SDS011;58242;51.250;-1.118;2022-11-03T05:06:08;3.03;;;1.77;;
70667;SDS011;58242;51.250;-1.118;2022-11-03T05:08:36;2.53;;;1.73;;
70667;SDS011;58242;51.250;-1.118;2022-11-03T05:11:08;1.40;;;1.30;;
70667;SDS011;58242;51.250;-1.118;2022-11-03T05:13:38;1.92;;;1.30;;
70667;SDS011;58242;51.250;-1.118;2022-11-03T05:16:04;1.30;;;1.20;;
70667;SDS011;58242;51.250;-1.118;2022-11-03T05:18:30;1.25;;;1.15;;
70667;SDS011;58242;51.250;-1.118;2022-11-03T05:21:02;1.58;;;1.15;;
70667;SDS011;58242;51.250;-1.118;2022-11-03T05:23:31;1.42;;;1.20;;
70667;SDS011;58242;51.250;-1.118;2022-11-03T05:26:02;0.93;;;0.93;;
70667;SDS011;58242;51.250;-1.118;2022-11-03T05:28:31;1.15;;;1.10;;
70667;SDS011;58242;51.250;-1.118;2022-11-03T05:30:59;1.10;;;1.10;;
70667;SDS011;58242;51.250;-1.118;2022-11-03T05:33:28;1.33;;;1.17;;
70667;SDS011;58242;51.250;-1.118;2022-11-03T05:35:56;5.35;;;1.60;;
70667;SDS011;58242;51.250;-1.118;2022-11-03T05:38:32;1.55;;;1.15;;
70667;SDS011;58242;51.250;-1.118;2022-11-03T05:40:57;1.50;;;1.33;;
70667;SDS011;58242;51.250;-1.118;2022-11-03T05:43:24;2.38;;;1.20;;
70667;SDS011;58242;51.250;-1.118;2022-11-03T05:45:51;2.38;;;1.55;;
70667;SDS011;58242;51.250;-1.118;2022-11-03T05:51:01;1.40;;;1.30;;
70667;SDS011;58242;51.250;-1.118;2022-11-03T05:53:38;1.30;;;1.20;;
70667;SDS011;58242;51.250;-1.118;2022-11-03T05:56:10;1.02;;;0.88;;
70667;SDS011;58242;51.250;-1.118;2022-11-03T05:58:42;1.00;;;1.00;;
70667;SDS011;58242;51.250;-1.118;2022-11-03T06:01:14;1.38;;;1.00;;
70667;SDS011;58242;51.250;-1.118;2022-11-03T06:03:43;1.20;;;1.10;;
70667;SDS011;58242;51.250;-1.118;2022-11-03T06:06:11;1.20;;;1.10;;
70667;SDS011;58242;51.250;-1.118;2022-11-03T06:08:42;1.00;;;1.00;;
70667;SDS011;58242;51.250;-1.118;2022-11-03T06:11:08;1.02;;;1.02;;
70667;SDS011;58242;51.250;-1.118;2022-11-03T06:13:40;1.17;;;1.10;;
70667;SDS011;58242;51.250;-1.118;2022-11-03T06:16:12;2.15;;;1.30;;
70667;SDS011;58242;51.250;-1.118;2022-11-03T06:18:44;1.10;;;1.10;;
70667;SDS011;58242;51.250;-1.118;2022-11-03T06:21:14;1.30;;;1.30;;
70667;SDS011;58242;51.250;-1.118;2022-11-03T06:23:43;1.55;;;1.40;;
70667;SDS011;58242;51.250;-1.118;2022-11-03T06:26:13;2.33;;;1.40;;
70667;SDS011;58242;51.250;-1.118;2022-11-03T06:28:42;1.83;;;1.73;;
70667;SDS011;58242;51.250;-1.118;2022-11-03T06:31:17;2.17;;;1.50;;
70667;SDS011;58242;51.250;-1.118;2022-11-03T06:33:47;1.30;;;1.20;;
70667;SDS011;58242;51.250;-1.118;2022-11-03T06:36:17;1.30;;;1.20;;
70667;SDS011;58242;51.250;-1.118;2022-11-03T06:38:46;1.60;;;1.50;;
70667;SDS011;58242;51.250;-1.118;2022-11-03T06:41:26;1.70;;;1.58;;
70667;SDS011;58242;51.250;-1.118;2022-11-03T06:43:53;1.70;;;1.33;;
70667;SDS011;58242;51.250;-1.118;2022-11-03T06:46:23;1.60;;;1.50;;
70667;SDS011;58242;51.250;-1.118;2022-11-03T06:48:50;1.30;;;1.20;;
70667;SDS011;58242;51.250;-1.118;2022-11-03T06:51:28;2.20;;;1.20;;
70667;SDS011;58242;51.250;-1.118;2022-11-03T06:56:34;1.70;;;1.60;;
70667;SDS011;58242;51.250;-1.118;2022-11-03T06:59:00;1.35;;;1.35;;
70667;SDS011;58242;51.250;-1.118;2022-11-03T07:01:30;1.55;;;1.45;;
70667;SDS011;58242;51.250;-1.118;2022-11-03T07:06:45;1.60;;;1.60;;
70667;SDS011;58242;51.250;-1.118;2022-11-03T07:09:13;1.40;;;1.40;;
70667;SDS011;58242;51.250;-1.118;2022-11-03T07:11:44;1.35;;;1.33;;
70667;SDS011;58242;51.250;-1.118;2022-11-03T07:14:21;1.50;;;1.40;;
70667;SDS011;58242;51.250;-1.118;2022-11-03T07:16:49;1.52;;;1.40;;
70667;SDS011;58242;51.250;-1.118;2022-11-03T07:21:44;1.23;;;1.20;;
70667;SDS011;58242;51.250;-1.118;2022-11-03T07:24:17;1.23;;;1.10;;
70667;SDS011;58242;51.250;-1.118;2022-11-03T07:26:43;1.10;;;1.10;;
70667;SDS011;58242;51.250;-1.118;2022-11-03T07:29:10;1.10;;;1.10;;
70667;SDS011;58242;51.250;-1.118;2022-11-03T07:31:39;1.35;;;1.25;;
70667;SDS011;58242;51.250;-1.118;2022-11-03T07:34:04;1.10;;;1.10;;
70667;SDS011;58242;51.250;-1.118;2022-11-03T07:36:37;1.10;;;1.10;;
70667;SDS011;58242;51.250;-1.118;2022-11-03T07:39:02;0.90;;;0.90;;
70667;SDS011;58242;51.250;-1.118;2022-11-03T07:41:30;1.10;;;1.10;;
70667;SDS011;58242;51.250;-1.118;2022-11-03T07:43:57;1.75;;;1.10;;
70667;SDS011;58242;51.250;-1.118;2022-11-03T07:46:24;2.63;;;1.20;;
70667;SDS011;58242;51.250;-1.118;2022-11-03T07:48:57;1.02;;;1.00;;
70667;SDS011;58242;51.250;-1.118;2022-11-03T07:54:15;1.30;;;1.20;;
70667;SDS011;58242;51.250;-1.118;2022-11-03T07:56:44;1.10;;;1.10;;
70667;SDS011;58242;51.250;-1.118;2022-11-03T08:01:44;1.20;;;1.20;;
70667;SDS011;58242;51.250;-1.118;2022-11-03T08:04:16;1.30;;;1.30;;
70667;SDS011;58242;51.250;-1.118;2022-11-03T08:06:44;1.30;;;1.20;;
70667;SDS011;58242;51.250;-1.118;2022-11-03T08:09:09;1.15;;;1.10;;
70667;SDS011;58242;51.250;-1.118;2022-11-03T08:11:35;1.33;;;1.27;;
70667;SDS011;58242;51.250;-1.118;2022-11-03T08:14:00;1.13;;;1.10;;
70667;SDS011;58242;51.250;-1.118;2022-11-03T08:16:25;1.33;;;1.20;;
70667;SDS011;58242;51.250;-1.118;2022-11-03T08:18:51;1.40;;;1.30;;
70667;SDS011;58242;51.250;-1.118;2022-11-03T08:21:16;1.33;;;1.10;;
70667;SDS011;58242;51.250;-1.118;2022-11-03T08:23:41;1.27;;;1.10;;
70667;SDS011;58242;51.250;-1.118;2022-11-03T08:26:07;1.17;;;1.17;;
70667;SDS011;58242;51.250;-1.118;2022-11-03T08:28:32;1.27;;;1.20;;
70667;SDS011;58242;51.250;-1.118;2022-11-03T08:30:58;1.58;;;1.20;;
70667;SDS011;58242;51.250;-1.118;2022-11-03T08:33:28;1.23;;;1.13;;
70667;SDS011;58242;51.250;-1.118;2022-11-03T08:35:54;1.10;;;1.10;;
70667;SDS011;58242;51.250;-1.118;2022-11-03T08:38:19;1.35;;;1.35;;
70667;SDS011;58242;51.250;-1.118;2022-11-03T08:40:45;1.00;;;1.00;;
70667;SDS011;58242;51.250;-1.118;2022-11-03T08:43:10;1.45;;;1.40;;
70667;SDS011;58242;51.250;-1.118;2022-11-03T08:45:35;1.50;;;1.40;;
70667;SDS011;58242;51.250;-1.118;2022-11-03T08:48:01;1.10;;;1.10;;
70667;SDS011;58242;51.250;-1.118;2022-11-03T08:50:26;1.30;;;1.20;;
70667;SDS011;58242;51.250;-1.118;2022-11-03T08:52:51;1.00;;;1.00;;
70667;SDS011;58242;51.250;-1.118;2022-11-03T08:55:17;1.38;;;1.38;;
70667;SDS011;58242;51.250;-1.118;2022-11-03T08:57:42;2.05;;;1.30;;
70667;SDS011;58242;51.250;-1.118;2022-11-03T09:00:08;0.95;;;0.95;;
70667;SDS011;58242;51.250;-1.118;2022-11-03T09:02:34;1.23;;;1.20;;
70667;SDS011;58242;51.250;-1.118;2022-11-03T09:04:59;1.30;;;1.20;;
70667;SDS011;58242;51.250;-1.118;2022-11-03T09:07:24;1.45;;;1.35;;
70667;SDS011;58242;51.250;-1.118;2022-11-03T09:09:50;1.63;;;1.38;;
70667;SDS011;58242;51.250;-1.118;2022-11-03T09:12:15;1.20;;;1.20;;
70667;SDS011;58242;51.250;-1.118;2022-11-03T09:14:40;1.23;;;1.17;;
70667;SDS011;58242;51.250;-1.118;2022-11-03T09:17:06;1.13;;;1.13;;
70667;SDS011;58242;51.250;-1.118;2022-11-03T09:19:31;1.10;;;1.10;;
70667;SDS011;58242;51.250;-1.118;2022-11-03T09:21:57;1.15;;;1.13;;
70667;SDS011;58242;51.250;-1.118;2022-11-03T09:24:23;1.60;;;1.50;;
70667;SDS011;58242;51.250;-1.118;2022-11-03T09:26:49;1.42;;;1.33;;
70667;SDS011;58242;51.250;-1.118;2022-11-03T09:29:14;1.27;;;1.23;;
70667;SDS011;58242;51.250;-1.118;2022-11-03T09:31:40;1.23;;;1.13;;
70667;SDS011;58242;51.250;-1.118;2022-11-03T09:34:05;1.02;;;1.02;;
70667;SDS011;58242;51.250;-1.118;2022-11-03T09:36:30;1.00;;;1.00;;
70667;SDS011;58242;51.250;-1.118;2022-11-03T09:38:56;1.08;;;1.08;;
70667;SDS011;58242;51.250;-1.118;2022-11-03T09:41:21;1.50;;;1.40;;
70667;SDS011;58242;51.250;-1.118;2022-11-03T09:43:47;2.22;;;1.52;;
70667;SDS011;58242;51.250;-1.118;2022-11-03T09:46:12;1.40;;;1.30;;
70667;SDS011;58242;51.250;-1.118;2022-11-03T09:48:39;1.10;;;1.10;;
70667;SDS011;58242;51.250;-1.118;2022-11-03T09:51:07;1.90;;;1.80;;
70667;SDS011;58242;51.250;-1.118;2022-11-03T09:53:34;2.22;;;1.30;;
70667;SDS011;58242;51.250;-1.118;2022-11-03T09:56:00;1.33;;;1.33;;
70667;SDS011;58242;51.250;-1.118;2022-11-03T09:58:25;1.20;;;1.20;;
70667;SDS011;58242;51.250;-1.118;2022-11-03T10:00:50;1.13;;;1.10;;
70667;SDS011;58242;51.250;-1.118;2022-11-03T10:03:16;1.25;;;1.25;;
70667;SDS011;58242;51.250;-1.118;2022-11-03T10:05:45;1.27;;;1.20;;
70667;SDS011;58242;51.250;-1.118;2022-11-03T10:08:18;1.40;;;1.30;;
70667;SDS011;58242;51.250;-1.118;2022-11-03T10:10:47;1.38;;;1.27;;
70667;SDS011;58242;51.250;-1.118;2022-11-03T10:13:21;1.27;;;1.27;;
70667;SDS011;58242;51.250;-1.118;2022-11-03T10:15:50;1.92;;;1.30;;
70667;SDS011;58242;51.250;-1.118;2022-11-03T10:18:16;1.20;;;1.20;;
70667;SDS011;58242;51.250;-1.118;2022-11-03T10:20:43;1.40;;;1.30;;
70667;SDS011;58242;51.250;-1.118;2022-11-03T10:23:08;1.60;;;1.50;;
70667;SDS011;58242;51.250;-1.118;2022-11-03T10:25:38;1.52;;;1.20;;
70667;SDS011;58242;51.250;-1.118;2022-11-03T10:30:49;1.38;;;1.38;;
70667;SDS011;58242;51.250;-1.118;2022-11-03T10:33:30;2.17;;;1.30;;
70667;SDS011;58242;51.250;-1.118;2022-11-03T10:36:03;1.20;;;1.20;;
70667;SDS011;58242;51.250;-1.118;2022-11-03T10:38:49;1.52;;;1.42;;
70667;SDS011;58242;51.250;-1.118;2022-11-03T10:41:16;1.98;;;1.30;;
70667;SDS011;58242;51.250;-1.118;2022-11-03T10:43:42;1.20;;;1.20;;
70667;SDS011;58242;51.250;-1.118;2022-11-03T10:48:42;1.30;;;1.30;;
70667;SDS011;58242;51.250;-1.118;2022-11-03T10:51:09;1.67;;;1.58;;
70667;SDS011;58242;51.250;-1.118;2022-11-03T10:53:36;1.73;;;1.63;;
70667;SDS011;58242;51.250;-1.118;2022-11-03T10:56:03;1.73;;;1.63;;
70667;SDS011;58242;51.250;-1.118;2022-11-03T10:58:29;1.75;;;1.65;;
70667;SDS011;58242;51.250;-1.118;2022-11-03T11:00:56;2.17;;;2.08;;
70667;SDS011;58242;51.250;-1.118;2022-11-03T11:03:21;2.40;;;2.20;;
70667;SDS011;58242;51.250;-1.118;2022-11-03T11:05:46;2.42;;;2.28;;
70667;SDS011;58242;51.250;-1.118;2022-11-03T11:08:12;1.60;;;1.60;;
70667;SDS011;58242;51.250;-1.118;2022-11-03T11:18:10;2.63;;;1.60;;
70667;SDS011;58242;51.250;-1.118;2022-11-03T11:20:56;1.80;;;1.70;;
70667;SDS011;58242;51.250;-1.118;2022-11-03T11:23:43;1.90;;;1.80;;
70667;SDS011;58242;51.250;-1.118;2022-11-03T11:28:38;2.13;;;1.98;;
70667;SDS011;58242;51.250;-1.118;2022-11-03T11:36:33;2.08;;;1.90;;
70667;SDS011;58242;51.250;-1.118;2022-11-03T11:39:00;2.10;;;2.00;;
70667;SDS011;58242;51.250;-1.118;2022-11-03T11:47:16;3.65;;;1.90;;
70667;SDS011;58242;51.250;-1.118;2022-11-03T11:49:42;2.35;;;1.77;;
70667;SDS011;58242;51.250;-1.118;2022-11-03T11:52:08;2.55;;;2.00;;
70667;SDS011;58242;51.250;-1.118;2022-11-03T11:54:33;1.70;;;1.70;;
70667;SDS011;58242;51.250;-1.118;2022-11-03T11:56:58;2.00;;;1.90;;
70667;SDS011;58242;51.250;-1.118;2022-11-03T11:59:24;2.15;;;1.80;;
70667;SDS011;58242;51.250;-1.118;2022-11-03T12:01:49;1.92;;;1.50;;
70667;SDS011;58242;51.250;-1.118;2022-11-03T12:04:18;3.22;;;2.05;;
70667;SDS011;58242;51.250;-1.118;2022-11-03T12:06:46;2.72;;;1.70;;
70667;SDS011;58242;51.250;-1.118;2022-11-03T12:11:47;1.60;;;1.50;;
70667;SDS011;58242;51.250;-1.118;2022-11-03T12:16:49;1.70;;;1.60;;
70667;SDS011;58242;51.250;-1.118;2022-11-03T12:21:58;1.77;;;1.67;;
70667;SDS011;58242;51.250;-1.118;2022-11-03T12:24:24;2.00;;;1.90;;
70667;SDS011;58242;51.250;-1.118;2022-11-03T12:26:50;2.38;;;2.28;;
70667;SDS011;58242;51.250;-1.118;2022-11-03T12:29:15;2.28;;;1.95;;
70667;SDS011;58242;51.250;-1.118;2022-11-03T12:31:40;1.85;;;1.70;;
70667;SDS011;58242;51.250;-1.118;2022-11-03T12:34:06;1.40;;;1.40;;
70667;SDS011;58242;51.250;-1.118;2022-11-03T12:36:31;1.90;;;1.80;;
70667;SDS011;58242;51.250;-1.118;2022-11-03T12:38:56;1.40;;;1.40;;
70667;SDS011;58242;51.250;-1.118;2022-11-03T12:41:22;1.70;;;1.60;;
70667;SDS011;58242;51.250;-1.118;2022-11-03T12:43:48;1.60;;;1.48;;
70667;SDS011;58242;51.250;-1.118;2022-11-03T12:48:44;2.22;;;1.80;;
70667;SDS011;58242;51.250;-1.118;2022-11-03T12:51:14;1.67;;;1.60;;
70667;SDS011;58242;51.250;-1.118;2022-11-03T12:53:44;1.70;;;1.60;;
70667;SDS011;58242;51.250;-1.118;2022-11-03T12:56:10;3.03;;;1.88;;
70667;SDS011;58242;51.250;-1.118;2022-11-03T12:58:36;1.80;;;1.70;;
70667;SDS011;58242;51.250;-1.118;2022-11-03T13:01:02;2.00;;;1.90;;
70667;SDS011;58242;51.250;-1.118;2022-11-03T13:03:28;2.60;;;2.50;;
70667;SDS011;58242;51.250;-1.118;2022-11-03T13:05:55;2.63;;;2.42;;
70667;SDS011;58242;51.250;-1.118;2022-11-03T13:08:21;4.00;;;2.70;;
70667;SDS011;58242;51.250;-1.118;2022-11-03T13:10:46;2.92;;;2.35;;
70667;SDS011;58242;51.250;-1.118;2022-11-03T13:13:12;3.53;;;2.70;;
70667;SDS011;58242;51.250;-1.118;2022-11-03T13:15:37;2.88;;;2.60;;
70667;SDS011;58242;51.250;-1.118;2022-11-03T13:18:03;2.90;;;2.30;;
70667;SDS011;58242;51.250;-1.118;2022-11-03T13:20:29;2.80;;;2.63;;
70667;SDS011;58242;51.250;-1.118;2022-11-03T13:22:55;2.45;;;2.35;;
70667;SDS011;58242;51.250;-1.118;2022-11-03T13:25:20;2.60;;;2.50;;
70667;SDS011;58242;51.250;-1.118;2022-11-03T13:27:48;2.67;;;2.50;;
70667;SDS011;58242;51.250;-1.118;2022-11-03T13:30:17;2.30;;;2.10;;
70667;SDS011;58242;51.250;-1.118;2022-11-03T13:32:43;2.10;;;2.00;;
70667;SDS011;58242;51.250;-1.118;2022-11-03T13:35:09;3.53;;;2.28;;
70667;SDS011;58242;51.250;-1.118;2022-11-03T13:37:34;1.90;;;1.80;;
70667;SDS011;58242;51.250;-1.118;2022-11-03T13:39:59;3.20;;;2.15;;
70667;SDS011;58242;51.250;-1.118;2022-11-03T13:42:25;1.80;;;1.70;;
70667;SDS011;58242;51.250;-1.118;2022-11-03T13:44:50;2.50;;;2.40;;
70667;SDS011;58242;51.250;-1.118;2022-11-03T13:47:15;2.08;;;1.98;;
70667;SDS011;58242;51.250;-1.118;2022-11-03T13:49:41;2.58;;;2.38;;
70667;SDS011;58242;51.250;-1.118;2022-11-03T13:52:06;2.50;;;2.35;;
70667;SDS011;58242;51.250;-1.118;2022-11-03T13:54:32;3.35;;;2.33;;
70667;SDS011;58242;51.250;-1.118;2022-11-03T13:56:57;2.47;;;2.28;;
70667;SDS011;58242;51.250;-1.118;2022-11-03T13:59:22;2.15;;;2.00;;
70667;SDS011;58242;51.250;-1.118;2022-11-03T14:01:48;2.55;;;2.28;;
70667;SDS011;58242;51.250;-1.118;2022-11-03T14:04:14;2.45;;;2.35;;
70667;SDS011;58242;51.250;-1.118;2022-11-03T14:06:39;2.65;;;2.45;;
70667;SDS011;58242;51.250;-1.118;2022-11-03T14:09:04;2.70;;;1.98;;
70667;SDS011;58242;51.250;-1.118;2022-11-03T14:11:30;2.28;;;2.15;;
70667;SDS011;58242;51.250;-1.118;2022-11-03T14:14:14;2.45;;;2.35;;
70667;SDS011;58242;51.250;-1.118;2022-11-03T14:16:39;2.63;;;2.42;;
70667;SDS011;58242;51.250;-1.118;2022-11-03T14:19:04;2.28;;;2.17;;
70667;SDS011;58242;51.250;-1.118;2022-11-03T14:21:30;2.40;;;2.30;;
70667;SDS011;58242;51.250;-1.118;2022-11-03T14:23:55;2.30;;;2.20;;
70667;SDS011;58242;51.250;-1.118;2022-11-03T14:26:21;2.95;;;2.70;;
70667;SDS011;58242;51.250;-1.118;2022-11-03T14:28:46;2.80;;;2.70;;
70667;SDS011;58242;51.250;-1.118;2022-11-03T14:31:11;2.70;;;2.40;;
70667;SDS011;58242;51.250;-1.118;2022-11-03T14:33:36;2.95;;;2.40;;
70667;SDS011;58242;51.250;-1.118;2022-11-03T14:36:02;5.00;;;2.30;;
70667;SDS011;58242;51.250;-1.118;2022-11-03T14:38:27;2.90;;;2.70;;
70667;SDS011;58242;51.250;-1.118;2022-11-03T14:40:53;3.22;;;2.33;;
70667;SDS011;58242;51.250;-1.118;2022-11-03T14:43:36;2.00;;;1.90;;
70667;SDS011;58242;51.250;-1.118;2022-11-03T14:46:01;3.28;;;3.00;;
70667;SDS011;58242;51.250;-1.118;2022-11-03T14:48:27;6.50;;;5.65;;
70667;SDS011;58242;51.250;-1.118;2022-11-03T14:50:52;6.90;;;6.28;;
70667;SDS011;58242;51.250;-1.118;2022-11-03T14:53:17;5.00;;;4.60;;
70667;SDS011;58242;51.250;-1.118;2022-11-03T14:55:43;3.53;;;3.22;;
70667;SDS011;58242;51.250;-1.118;2022-11-03T14:58:08;2.60;;;2.50;;
70667;SDS011;58242;51.250;-1.118;2022-11-03T15:00:34;2.63;;;2.53;;
70667;SDS011;58242;51.250;-1.118;2022-11-03T15:02:59;2.80;;;2.50;;
70667;SDS011;58242;51.250;-1.118;2022-11-03T15:05:25;2.40;;;2.30;;
70667;SDS011;58242;51.250;-1.118;2022-11-03T15:08:08;3.80;;;3.53;;
70667;SDS011;58242;51.250;-1.118;2022-11-03T15:10:34;4.13;;;3.70;;
70667;SDS011;58242;51.250;-1.118;2022-11-03T15:12:59;3.80;;;3.53;;
70667;SDS011;58242;51.250;-1.118;2022-11-03T15:15:24;3.20;;;3.00;;
70667;SDS011;58242;51.250;-1.118;2022-11-03T15:17:50;2.67;;;2.58;;
70667;SDS011;58242;51.250;-1.118;2022-11-03T15:20:15;2.95;;;2.60;;
70667;SDS011;58242;51.250;-1.118;2022-11-03T15:22:41;2.45;;;2.30;;
70667;SDS011;58242;51.250;-1.118;2022-11-03T15:25:06;2.10;;;2.00;;
70667;SDS011;58242;51.250;-1.118;2022-11-03T15:27:32;2.28;;;2.17;;
70667;SDS011;58242;51.250;-1.118;2022-11-03T15:29:57;2.13;;;2.03;;
70667;SDS011;58242;51.250;-1.118;2022-11-03T15:32:23;2.22;;;2.03;;
70667;SDS011;58242;51.250;-1.118;2022-11-03T15:34:48;1.85;;;1.83;;
70667;SDS011;58242;51.250;-1.118;2022-11-03T15:37:13;1.70;;;1.60;;
70667;SDS011;58242;51.250;-1.118;2022-11-03T15:39:39;1.90;;;1.80;;
70667;SDS011;58242;51.250;-1.118;2022-11-03T15:42:05;1.80;;;1.70;;
70667;SDS011;58242;51.250;-1.118;2022-11-03T15:44:30;1.80;;;1.80;;
70667;SDS011;58242;51.250;-1.118;2022-11-03T15:46:55;1.80;;;1.70;;
70667;SDS011;58242;51.250;-1.118;2022-11-03T15:49:21;2.10;;;2.00;;